createdAt,value
2024-04-26T00:02:09.364Z,77.08
2024-04-26T00:07:11.131Z,77.70
2024-04-26T00:12:16.490Z,77.46
2024-04-26T00:17:18.487Z,76.88
2024-04-26T00:22:20.242Z,77.82
2024-04-26T00:27:22.152Z,77.91
2024-04-26T00:32:23.987Z,78.04
2024-04-26T00:37:25.840Z,77.76
2024-04-26T00:42:28.717Z,77.88
2024-04-26T00:47:30.629Z,78.41
2024-04-26T00:52:32.528Z,78.65
2024-04-26T00:57:34.494Z,79.69
2024-04-26T01:02:37.535Z,78.67
2024-04-26T01:07:39.313Z,79.93
2024-04-26T01:12:41.044Z,79.57
2024-04-26T01:17:43.656Z,78.98
2024-04-26T01:22:45.870Z,79.80
2024-04-26T01:27:47.755Z,79.82
2024-04-26T01:32:50.027Z,78.95
2024-04-26T01:37:51.872Z,79.42
2024-04-26T01:42:53.698Z,80.63
2024-04-26T01:47:55.549Z,79.12
2024-04-26T01:52:57.658Z,78.50
2024-04-26T01:57:59.431Z,78.08
2024-04-26T02:03:01.403Z,77.99
2024-04-26T02:08:03.390Z,77.82
2024-04-26T02:13:05.462Z,77.87
2024-04-26T02:18:07.377Z,77.42
2024-04-26T02:23:09.230Z,77.70
2024-04-26T02:28:11.016Z,78.18
2024-04-26T02:33:12.945Z,78.51
2024-04-26T02:38:14.934Z,77.90
2024-04-26T02:43:16.698Z,78.47
2024-04-26T02:48:18.475Z,78.66
2024-04-26T02:53:20.276Z,79.06
2024-04-26T02:58:22.023Z,78.42
2024-04-26T03:03:24.011Z,78.36
2024-04-26T03:08:25.958Z,77.84
2024-04-26T03:13:27.837Z,77.37
2024-04-26T03:18:29.881Z,78.19
2024-04-26T03:23:31.925Z,78.11
2024-04-26T03:28:33.681Z,78.33
2024-04-26T03:33:35.540Z,78.05
2024-04-26T03:38:37.443Z,77.86
2024-04-26T03:43:39.203Z,77.54
2024-04-26T03:48:41.090Z,77.50
2024-04-26T03:53:42.950Z,78.44
2024-04-26T03:58:44.794Z,78.49
2024-04-26T04:03:46.733Z,78.18
2024-04-26T04:08:48.640Z,77.42
2024-04-26T04:13:50.594Z,76.85
2024-04-26T04:18:52.512Z,77.09
2024-04-26T04:23:54.588Z,77.21
2024-04-26T04:28:58.496Z,77.25
2024-04-26T04:34:00.482Z,76.14
2024-04-26T04:39:04.485Z,77.22
2024-04-26T04:44:09.256Z,77.33
2024-04-26T04:49:11.175Z,77.23
2024-04-26T04:54:13.050Z,76.41
2024-04-26T04:59:16.359Z,75.32
2024-04-26T05:04:18.380Z,74.40
2024-04-26T05:09:20.291Z,75.07
2024-04-26T05:14:22.082Z,74.06
2024-04-26T05:19:24.225Z,74.11
2024-04-26T05:24:28.952Z,74.81
2024-04-26T05:29:31.430Z,73.79
2024-04-26T05:34:33.465Z,73.89
2024-04-26T05:39:35.665Z,74.26
2024-04-26T05:44:37.460Z,74.09
2024-04-26T05:49:39.397Z,74.18
2024-04-26T05:54:41.368Z,73.73
2024-04-26T05:59:43.188Z,73.44
2024-04-26T06:04:48.401Z,73.67
2024-04-26T06:09:50.273Z,73.38
2024-04-26T06:14:52.243Z,73.42
2024-04-26T06:19:54.160Z,73.01
2024-04-26T06:24:56.008Z,73.02
2024-04-26T06:29:57.878Z,71.98
2024-04-26T06:34:59.676Z,72.08
2024-04-26T06:40:01.431Z,71.73
2024-04-26T06:45:03.375Z,71.79
2024-04-26T06:50:06.163Z,71.48
2024-04-26T06:55:07.947Z,71.38
2024-04-26T07:00:10.444Z,70.67
2024-04-26T07:05:12.549Z,70.05
2024-04-26T07:10:14.565Z,69.67
2024-04-26T07:15:16.444Z,68.90
2024-04-26T07:20:18.296Z,69.05
2024-04-26T07:25:20.431Z,69.11
2024-04-26T07:30:22.321Z,68.17
2024-04-26T07:35:24.323Z,67.40
2024-04-26T07:40:26.947Z,66.99
2024-04-26T07:45:29.075Z,66.95
2024-04-26T07:50:31.212Z,66.76
2024-04-26T07:55:33.131Z,66.12
2024-04-26T08:00:35.269Z,64.40
2024-04-26T08:05:37.187Z,64.86
2024-04-26T08:10:38.950Z,64.04
2024-04-26T08:15:46.921Z,62.78
2024-04-26T08:20:48.723Z,60.53
2024-04-26T08:25:50.531Z,56.87
2024-04-26T08:30:52.344Z,50.87
2024-04-26T08:35:54.544Z,47.74
2024-04-26T08:40:56.626Z,46.57
2024-04-26T08:45:58.653Z,44.96
2024-04-26T08:51:00.788Z,44.88
2024-04-26T08:56:07.741Z,46.28
2024-04-26T09:01:12.279Z,43.84
2024-04-26T09:06:17.288Z,43.61
2024-04-26T09:11:19.306Z,44.13
2024-04-26T09:16:21.617Z,43.92
2024-04-26T09:21:23.505Z,44.02
2024-04-26T09:26:26.694Z,43.04
2024-04-26T09:31:28.639Z,43.32
2024-04-26T09:36:31.588Z,43.54
2024-04-26T09:41:34.491Z,44.12
2024-04-26T09:46:37.857Z,44.71
2024-04-26T09:51:45.147Z,44.28
2024-04-26T09:56:49.893Z,44.38
2024-04-26T10:01:51.764Z,44.12
2024-04-26T10:06:53.616Z,44.05
2024-04-26T10:11:55.899Z,44.43
2024-04-26T10:17:08.493Z,44.91
2024-04-26T10:22:11.627Z,45.23
2024-04-26T10:27:13.636Z,44.67
2024-04-26T10:32:15.534Z,45.22
2024-04-26T10:37:17.754Z,45.77
2024-04-26T10:42:23.163Z,45.76
2024-04-26T10:47:25.262Z,45.06
2024-04-26T10:52:27.122Z,45.48
2024-04-26T10:57:28.894Z,45.52
2024-04-26T11:02:31.131Z,44.75
2024-04-26T11:07:33.329Z,45.71
2024-04-26T11:12:45.260Z,45.28
2024-04-26T11:17:47.388Z,45.70
2024-04-26T11:22:49.276Z,45.84
2024-04-26T11:27:51.058Z,46.53
2024-04-26T11:32:52.932Z,46.46
2024-04-26T11:37:54.812Z,46.61
2024-04-26T11:42:56.883Z,46.95
2024-04-26T11:47:58.863Z,46.68
2024-04-26T11:53:00.668Z,47.50
2024-04-26T11:58:02.427Z,47.40
2024-04-26T12:03:04.695Z,47.56
2024-04-26T12:08:07.158Z,47.20
2024-04-26T12:13:09.039Z,47.52
2024-04-26T12:18:12.016Z,46.86
2024-04-26T12:23:13.943Z,46.45
2024-04-26T12:28:15.685Z,46.18
2024-04-26T12:33:17.778Z,45.73
2024-04-26T12:38:19.917Z,45.42
2024-04-26T12:43:21.718Z,44.82
2024-04-26T12:48:24.088Z,44.63
2024-04-26T12:53:28.338Z,44.56
2024-04-26T12:58:30.272Z,44.89
2024-04-26T13:03:32.169Z,44.98
2024-04-26T13:08:34.078Z,44.63
2024-04-26T13:13:36.361Z,43.47
2024-04-26T13:18:41.395Z,43.80
2024-04-26T13:23:45.150Z,45.11
2024-04-26T13:28:46.894Z,44.52
2024-04-26T13:33:48.707Z,42.72
2024-04-26T13:38:50.526Z,42.76
2024-04-26T13:43:52.309Z,42.90
2024-04-26T13:48:54.493Z,43.23
2024-04-26T13:53:56.406Z,43.05
2024-04-26T13:58:58.298Z,43.03
2024-04-26T14:04:00.261Z,42.62
2024-04-26T14:09:02.188Z,44.02
2024-04-26T14:14:04.014Z,43.39
2024-04-26T14:19:06.261Z,43.25
2024-04-26T14:24:08.382Z,43.84
2024-04-26T14:29:11.236Z,44.56
2024-04-26T14:34:13.005Z,43.66
2024-04-26T14:39:14.943Z,43.56
2024-04-26T14:44:17.810Z,43.10
2024-04-26T14:49:19.627Z,44.62
2024-04-26T14:54:21.389Z,42.97
2024-04-26T14:59:23.138Z,43.34
2024-04-26T15:04:25.092Z,43.15
2024-04-26T15:09:27.101Z,43.87
2024-04-26T15:14:28.894Z,43.31
2024-04-26T15:19:30.761Z,43.18
2024-04-26T15:24:33.156Z,43.21
2024-04-26T15:29:34.974Z,43.25
2024-04-26T15:34:36.767Z,43.54
2024-04-26T15:39:38.552Z,42.98
2024-04-26T15:44:42.208Z,43.27
2024-04-26T15:49:44.778Z,43.62
2024-04-26T15:54:50.351Z,43.43
2024-04-26T15:59:52.119Z,44.76
2024-04-26T16:04:53.995Z,44.89
2024-04-26T16:09:55.923Z,44.87
2024-04-26T16:14:58.790Z,44.77
2024-04-26T16:20:02.943Z,45.07
2024-04-26T16:25:05.561Z,44.87
2024-04-26T16:30:08.019Z,46.64
2024-04-26T16:35:10.868Z,46.38
2024-04-26T16:45:16.407Z,47.12
2024-04-26T16:50:18.442Z,47.41
2024-04-26T16:55:20.228Z,47.26
2024-04-26T17:00:22.013Z,47.54
2024-04-26T17:05:24.215Z,47.79
2024-04-26T17:10:26.026Z,48.08
2024-04-26T17:15:27.856Z,48.60
2024-04-26T17:20:29.691Z,48.45
2024-04-26T17:25:33.561Z,48.25
2024-04-26T17:30:35.989Z,47.49
2024-04-26T17:35:37.777Z,46.47
2024-04-26T17:40:39.622Z,47.43
2024-04-26T17:45:41.409Z,47.61
2024-04-26T17:50:49.484Z,48.17
2024-04-26T17:55:56.174Z,48.80
2024-04-26T18:00:57.992Z,49.34
2024-04-26T18:06:00.426Z,49.44
2024-04-26T18:11:02.399Z,49.82
2024-04-26T18:16:04.504Z,50.14
2024-04-26T18:21:06.262Z,50.73
2024-04-26T18:26:11.897Z,50.57
2024-04-26T18:31:13.669Z,50.58
2024-04-26T18:36:19.439Z,51.95
2024-04-26T18:41:21.269Z,50.87
2024-04-26T18:46:23.121Z,52.06
2024-04-26T18:51:24.945Z,51.82
2024-04-26T18:56:26.775Z,52.01
2024-04-26T19:01:28.925Z,53.10
2024-04-26T19:06:30.725Z,54.03
2024-04-26T19:11:34.217Z,54.65
2024-04-26T19:16:39.857Z,54.66
2024-04-26T19:21:49.452Z,55.34
2024-04-26T19:26:54.933Z,56.10
2024-04-26T19:31:57.165Z,57.04
2024-04-26T19:36:59.183Z,55.86
2024-04-26T19:42:00.915Z,56.54
2024-04-26T19:47:02.900Z,56.85
2024-04-26T19:52:06.181Z,58.34
2024-04-26T19:57:08.004Z,58.38
2024-04-26T20:02:09.785Z,58.82
2024-04-26T20:07:11.938Z,58.57
2024-04-26T20:12:14.759Z,58.65
2024-04-26T20:17:17.259Z,58.66
2024-04-26T20:22:19.874Z,59.49
2024-04-26T20:27:21.909Z,60.04
2024-04-26T20:32:23.779Z,59.24
2024-04-26T20:37:25.910Z,58.93
2024-04-26T20:42:27.732Z,59.20
2024-04-26T20:47:30.209Z,59.97
2024-04-26T20:52:32.190Z,60.82
2024-04-26T20:57:34.101Z,60.36
2024-04-26T21:02:35.966Z,60.08
2024-04-26T21:07:37.901Z,60.19
2024-04-26T21:12:39.812Z,60.73
2024-04-26T21:17:41.659Z,61.23
2024-04-26T21:22:43.601Z,61.56
2024-04-26T21:27:46.062Z,62.04
2024-04-26T21:32:49.976Z,62.51
2024-04-26T21:37:51.843Z,61.86
2024-04-26T21:42:53.630Z,61.65
2024-04-26T21:47:55.443Z,61.61
2024-04-26T21:52:57.308Z,61.64
2024-04-26T21:57:59.188Z,62.55
2024-04-26T22:03:01.198Z,63.53
2024-04-26T22:08:03.368Z,63.78
2024-04-26T22:13:05.233Z,65.14
2024-04-26T22:18:07.039Z,65.14
2024-04-26T22:23:09.768Z,64.55
2024-04-26T22:28:11.543Z,65.34
2024-04-26T22:33:13.362Z,65.67
2024-04-26T22:38:15.218Z,66.48
2024-04-26T22:43:16.962Z,67.05
2024-04-26T22:48:19.148Z,65.04
2024-04-26T22:53:21.044Z,67.00
2024-04-26T22:58:22.856Z,66.40
2024-04-26T23:03:24.634Z,67.40
2024-04-26T23:08:26.967Z,67.41
2024-04-26T23:13:28.798Z,67.28
2024-04-26T23:18:35.819Z,69.48
2024-04-26T23:23:42.236Z,69.74
2024-04-26T23:28:44.130Z,70.32
2024-04-26T23:33:46.134Z,69.20
2024-04-26T23:38:47.957Z,69.96
2024-04-26T23:43:49.880Z,68.69
2024-04-26T23:48:51.792Z,69.83
2024-04-26T23:53:53.582Z,71.46
2024-04-26T23:58:55.714Z,69.93
